Qingyuan, China
Current Conditions -  °F | °C
As of 10:00 PM on Wednesday 22 Oct 2014 (Local Time) from ZYTX Reporting Station
Smoke Smoke  
Wind Chill: 36°   Ceiling: Unl
Heat Index: 39°   Visibility: 2.5mi
Dew Point: 18°   Wind: 4mph
Humidity: 42%   Direction: 150°SSE
Pressure: 30.12"   Gusts: NA
Location:  42.1°N, 124.95°E
Report Text: ZYTX 221400Z 15002MPS 4000 FU NSC 04/M08 Q1020 NOSIG
Loading
Personal Weather Stations






























Interactive Weather Map
Tropical Storm Tracking
New forecast layout! Learn more

10-Day Weather Forecast

Advertisements
Track Severe Weather on mobile